createdAt,value
2018-10-09T00:02:20.149Z,17.67
2018-10-09T00:04:49.173Z,20.13
2018-10-09T00:07:17.833Z,17.90
2018-10-09T00:09:47.340Z,17.70
2018-10-09T00:12:16.449Z,19.20
2018-10-09T00:14:44.910Z,16.13
2018-10-09T00:17:13.350Z,17.43
2018-10-09T00:19:41.862Z,19.73
2018-10-09T00:22:10.265Z,19.43
2018-10-09T00:24:39.460Z,19.80
2018-10-09T00:27:07.994Z,17.93
2018-10-09T00:29:36.458Z,17.43
2018-10-09T00:32:04.886Z,16.43
2018-10-09T00:34:33.315Z,15.43
2018-10-09T00:37:01.851Z,16.37
2018-10-09T00:39:30.251Z,17.70
2018-10-09T00:41:59.982Z,18.40
2018-10-09T00:44:29.100Z,17.40
2018-10-09T00:46:58.543Z,16.23
2018-10-09T00:49:27.843Z,16.77
2018-10-09T00:51:56.253Z,17.87
2018-10-09T00:54:24.773Z,18.07
2018-10-09T00:56:53.190Z,19.03
2018-10-09T00:59:21.616Z,20.03
2018-10-09T01:01:50.084Z,20.73
2018-10-09T01:04:19.108Z,19.67
2018-10-09T01:06:47.593Z,18.30
2018-10-09T01:09:16.175Z,16.67
2018-10-09T01:11:44.488Z,17.87
2018-10-09T01:14:13.019Z,16.50
2018-10-09T01:16:41.532Z,18.73
2018-10-09T01:19:10.012Z,20.50
2018-10-09T01:21:38.502Z,21.13
2018-10-09T01:24:07.973Z,21.10
2018-10-09T01:26:36.664Z,21.93
2018-10-09T01:29:05.117Z,20.90
2018-10-09T01:31:33.653Z,21.40
2018-10-09T01:34:02.186Z,21.37
2018-10-09T01:36:31.723Z,23.47
2018-10-09T01:39:00.268Z,22.67
2018-10-09T01:41:29.278Z,23.30
2018-10-09T01:43:57.715Z,23.70
2018-10-09T01:46:26.313Z,21.53
2018-10-09T01:48:56.426Z,22.20
2018-10-09T01:51:24.842Z,20.77
2018-10-09T01:53:53.295Z,23.70
2018-10-09T01:56:22.316Z,22.33
2018-10-09T01:58:50.734Z,22.67
2018-10-09T02:01:19.164Z,23.63
2018-10-09T02:03:48.222Z,23.30
2018-10-09T02:06:17.466Z,23.80
2018-10-09T02:08:45.953Z,24.60
2018-10-09T02:11:15.023Z,25.27
2018-10-09T02:13:43.530Z,24.03
2018-10-09T02:16:12.030Z,22.97
2018-10-09T02:18:40.491Z,23.53
2018-10-09T02:21:08.960Z,21.00
2018-10-09T02:23:37.519Z,21.70
2018-10-09T02:26:05.997Z,22.53
2018-10-09T02:28:34.519Z,24.53
2018-10-09T02:31:03.157Z,22.37
2018-10-09T02:33:32.761Z,23.57
2018-10-09T02:36:01.177Z,23.50
2018-10-09T02:38:30.429Z,23.27
2018-10-09T02:40:58.843Z,22.27
2018-10-09T02:43:27.291Z,22.73
2018-10-09T02:45:55.968Z,23.10
2018-10-09T02:48:24.443Z,25.03
2018-10-09T02:50:52.905Z,24.47
2018-10-09T02:53:22.284Z,25.87
2018-10-09T02:55:50.802Z,24.77
2018-10-09T02:58:19.316Z,23.83
2018-10-09T03:00:47.791Z,23.57
2018-10-09T03:03:17.019Z,23.27
2018-10-09T03:05:45.398Z,25.13
2018-10-09T03:08:14.717Z,25.33
2018-10-09T03:10:43.168Z,25.57
2018-10-09T03:13:11.855Z,24.93
2018-10-09T03:15:40.273Z,25.43
2018-10-09T03:18:08.912Z,25.87
2018-10-09T03:20:37.460Z,25.77
2018-10-09T03:23:06.035Z,25.07
2018-10-09T03:25:35.685Z,25.27
2018-10-09T03:28:04.266Z,24.50
2018-10-09T03:30:32.798Z,24.97
2018-10-09T03:33:01.238Z,25.03
2018-10-09T03:35:29.820Z,26.20
2018-10-09T03:37:58.858Z,24.73
2018-10-09T03:40:28.052Z,25.00
2018-10-09T03:42:57.498Z,25.60
2018-10-09T03:45:26.038Z,26.17
2018-10-09T03:47:55.606Z,23.30
2018-10-09T03:50:24.122Z,22.13
2018-10-09T03:52:53.467Z,20.97
2018-10-09T03:55:21.898Z,21.87
2018-10-09T03:57:50.349Z,22.27
2018-10-09T04:00:18.866Z,23.30
2018-10-09T04:02:47.363Z,22.70
2018-10-09T04:05:16.667Z,23.30
2018-10-09T04:07:45.379Z,22.03
2018-10-09T04:10:13.986Z,23.90
2018-10-09T04:12:42.510Z,22.03
2018-10-09T04:15:11.045Z,22.07
2018-10-09T04:17:40.143Z,21.77
2018-10-09T04:20:08.917Z,21.33
2018-10-09T04:22:37.391Z,22.17
2018-10-09T04:25:06.017Z,22.03
2018-10-09T04:27:35.322Z,22.37
2018-10-09T04:30:05.415Z,25.43
2018-10-09T04:32:34.725Z,22.33
2018-10-09T04:35:03.228Z,22.43
2018-10-09T04:37:31.843Z,21.77
2018-10-09T04:40:00.392Z,22.53
2018-10-09T04:42:29.603Z,21.07
2018-10-09T04:44:58.701Z,21.80
2018-10-09T04:47:27.249Z,22.07
2018-10-09T04:49:55.704Z,22.43
2018-10-09T04:52:25.329Z,22.17
2018-10-09T04:54:53.790Z,22.10
2018-10-09T04:57:22.763Z,21.17
2018-10-09T04:59:51.197Z,23.03
2018-10-09T05:02:19.602Z,21.53
2018-10-09T05:04:48.938Z,22.43
2018-10-09T05:07:17.374Z,22.93
2018-10-09T05:09:45.783Z,21.47
2018-10-09T05:12:14.410Z,23.07
2018-10-09T05:14:43.613Z,24.83
2018-10-09T05:17:12.100Z,25.93
2018-10-09T05:19:40.623Z,25.33
2018-10-09T05:22:09.072Z,26.47
2018-10-09T05:24:37.582Z,24.57
2018-10-09T05:27:06.077Z,24.30
2018-10-09T05:29:34.820Z,24.83
2018-10-09T05:32:03.263Z,23.00
2018-10-09T05:34:31.960Z,22.50
2018-10-09T05:37:00.431Z,21.97
2018-10-09T05:39:29.757Z,22.73
2018-10-09T05:41:58.258Z,22.43
2018-10-09T05:44:27.454Z,20.60
2018-10-09T05:46:56.866Z,22.23
2018-10-09T05:49:25.848Z,23.20
2018-10-09T05:51:54.260Z,22.37
2018-10-09T05:54:23.460Z,23.73
2018-10-09T05:56:51.933Z,22.40
2018-10-09T05:59:20.874Z,23.03
2018-10-09T06:01:49.327Z,25.43
2018-10-09T06:04:17.812Z,24.30
2018-10-09T06:06:47.094Z,23.23
2018-10-09T06:09:15.649Z,22.47
2018-10-09T06:11:44.128Z,21.67
2018-10-09T06:14:12.716Z,21.70
2018-10-09T06:16:41.294Z,22.00
2018-10-09T06:19:10.069Z,20.13
2018-10-09T06:21:39.353Z,18.93
2018-10-09T06:24:07.929Z,19.13
2018-10-09T06:26:37.540Z,19.53
2018-10-09T06:29:07.187Z,18.17
2018-10-09T06:31:35.649Z,18.20
2018-10-09T06:34:04.193Z,17.80
2018-10-09T06:36:33.139Z,22.03
2018-10-09T06:39:01.592Z,20.53
2018-10-09T06:41:30.724Z,18.43
2018-10-09T06:43:59.149Z,17.47
2018-10-09T06:46:28.202Z,16.97
2018-10-09T06:48:56.622Z,22.13
2018-10-09T06:51:25.752Z,21.03
2018-10-09T06:53:55.239Z,24.60
2018-10-09T06:56:23.623Z,18.97
2018-10-09T06:58:52.138Z,16.23
2018-10-09T07:01:20.617Z,22.23
2018-10-09T07:03:49.295Z,18.53
2018-10-09T07:06:17.936Z,19.70
2018-10-09T07:08:46.380Z,19.83
2018-10-09T07:11:15.835Z,19.33
2018-10-09T07:13:44.447Z,19.47
2018-10-09T07:16:13.726Z,17.67
2018-10-09T07:18:42.373Z,16.70
2018-10-09T07:21:11.647Z,19.73
2018-10-09T07:23:40.344Z,16.97
2018-10-09T07:26:08.927Z,15.03
2018-10-09T07:28:37.516Z,16.23
2018-10-09T07:31:06.178Z,16.43
2018-10-09T07:33:35.449Z,15.57
2018-10-09T07:36:05.792Z,16.27
2018-10-09T07:38:34.637Z,14.77
2018-10-09T07:41:03.039Z,16.57
2018-10-09T07:43:31.750Z,14.30
2018-10-09T07:46:00.432Z,15.90
2018-10-09T07:48:28.940Z,15.17
2018-10-09T07:50:57.774Z,16.47
2018-10-09T07:53:27.139Z,16.23
2018-10-09T07:55:55.704Z,16.37
2018-10-09T07:58:24.520Z,16.53
2018-10-09T08:00:54.063Z,17.23
2018-10-09T08:03:23.707Z,16.50
2018-10-09T08:05:53.932Z,16.43
2018-10-09T08:08:22.753Z,16.70
2018-10-09T08:10:51.705Z,16.57
2018-10-09T08:13:20.646Z,16.40
2018-10-09T08:15:50.242Z,15.93
2018-10-09T08:18:19.080Z,16.43
2018-10-09T08:20:47.984Z,15.33
2018-10-09T08:23:17.956Z,16.20
2018-10-09T08:25:46.589Z,16.30
2018-10-09T08:28:15.307Z,16.30
2018-10-09T08:30:43.837Z,16.97
2018-10-09T08:33:12.499Z,17.83
2018-10-09T08:35:41.053Z,16.27
2018-10-09T08:38:10.305Z,18.27
2018-10-09T08:40:38.977Z,19.93
2018-10-09T08:43:09.823Z,17.93
2018-10-09T08:45:39.420Z,18.43
2018-10-09T08:48:08.547Z,20.10
2018-10-09T08:50:41.318Z,18.07
2018-10-09T08:53:09.812Z,19.50
2018-10-09T08:55:39.200Z,17.67
2018-10-09T08:58:07.721Z,19.87
2018-10-09T09:00:36.702Z,19.17
2018-10-09T09:03:06.672Z,18.87
2018-10-09T09:05:36.140Z,19.77
2018-10-09T09:08:04.644Z,18.90
2018-10-09T09:10:33.278Z,18.57
2018-10-09T09:13:02.371Z,19.23
2018-10-09T09:15:31.035Z,18.93
2018-10-09T09:17:59.528Z,19.73
2018-10-09T09:20:28.247Z,19.50
2018-10-09T09:22:58.135Z,19.53
2018-10-09T09:25:26.808Z,19.90
2018-10-09T09:27:55.247Z,18.67
2018-10-09T09:30:23.726Z,19.63
2018-10-09T09:32:52.595Z,17.07
2018-10-09T09:35:21.048Z,18.27
2018-10-09T09:37:50.774Z,18.23
2018-10-09T09:40:19.247Z,19.47
2018-10-09T09:42:47.824Z,18.63
2018-10-09T09:45:16.423Z,18.47
2018-10-09T09:47:44.878Z,18.43
2018-10-09T09:50:14.320Z,18.93
2018-10-09T09:52:42.888Z,20.10
2018-10-09T09:55:12.140Z,18.23
2018-10-09T09:57:41.770Z,18.87
2018-10-09T10:00:14.700Z,18.30
2018-10-09T10:02:43.246Z,18.50
2018-10-09T10:05:11.708Z,19.00
2018-10-09T10:07:40.261Z,19.47
2018-10-09T10:10:09.314Z,18.53
2018-10-09T10:12:37.855Z,18.87
2018-10-09T10:15:06.409Z,18.73
2018-10-09T10:17:35.705Z,17.03
2018-10-09T10:20:04.198Z,17.50
2018-10-09T10:22:33.455Z,17.00
2018-10-09T10:25:02.917Z,17.67
2018-10-09T10:27:31.541Z,17.67
2018-10-09T10:30:00.091Z,18.83
2018-10-09T10:32:28.519Z,18.90
2018-10-09T10:34:57.179Z,20.57
2018-10-09T10:37:26.856Z,20.90
2018-10-09T10:39:56.185Z,19.77
2018-10-09T10:42:24.637Z,20.00
2018-10-09T10:44:53.147Z,19.37
2018-10-09T10:47:21.632Z,19.83
2018-10-09T10:49:50.232Z,20.07
2018-10-09T10:52:18.691Z,20.20
2018-10-09T10:54:47.231Z,20.90
2018-10-09T10:57:16.192Z,20.70
2018-10-09T10:59:44.774Z,19.57
2018-10-09T11:02:13.329Z,20.43
2018-10-09T11:04:42.651Z,20.73
2018-10-09T11:07:13.842Z,20.57
2018-10-09T11:09:42.326Z,20.57
2018-10-09T11:12:11.816Z,21.17
2018-10-09T11:14:40.349Z,20.77
2018-10-09T11:17:10.766Z,22.27
2018-10-09T11:19:39.621Z,21.27
2018-10-09T11:22:09.670Z,20.37
2018-10-09T11:24:39.369Z,20.43
2018-10-09T11:27:08.284Z,21.67
2018-10-09T11:29:39.009Z,20.93
2018-10-09T11:32:08.164Z,21.33
2018-10-09T11:34:37.120Z,22.27
2018-10-09T11:37:06.693Z,21.63
2018-10-09T11:39:35.155Z,22.23
2018-10-09T11:42:04.323Z,23.10
2018-10-09T11:44:32.793Z,21.67
2018-10-09T11:47:01.337Z,22.50
2018-10-09T11:49:30.551Z,22.73
2018-10-09T11:52:00.376Z,22.40
2018-10-09T11:54:28.820Z,22.77
2018-10-09T11:56:57.310Z,21.27
2018-10-09T11:59:25.766Z,20.33
2018-10-09T12:01:54.307Z,21.83
2018-10-09T12:04:22.827Z,21.37
2018-10-09T12:06:51.283Z,21.87
2018-10-09T12:09:19.873Z,21.37
2018-10-09T12:11:49.200Z,22.33
2018-10-09T12:14:17.683Z,23.03
2018-10-09T12:16:46.607Z,21.97
2018-10-09T12:19:15.071Z,22.60
2018-10-09T12:21:44.037Z,21.27
2018-10-09T12:24:12.537Z,20.87
2018-10-09T12:26:41.101Z,21.80
2018-10-09T12:29:09.878Z,21.20
2018-10-09T12:31:38.385Z,20.67
2018-10-09T12:34:07.363Z,21.73
2018-10-09T12:36:36.132Z,22.73
2018-10-09T12:39:06.978Z,21.87
2018-10-09T12:41:36.101Z,22.77
2018-10-09T12:44:05.381Z,21.00
2018-10-09T12:46:33.807Z,21.60
2018-10-09T12:49:02.308Z,21.30
2018-10-09T12:51:30.816Z,22.07
2018-10-09T12:54:00.360Z,22.17
2018-10-09T12:56:28.858Z,21.57
2018-10-09T12:58:58.437Z,22.20
2018-10-09T13:01:26.912Z,21.17
2018-10-09T13:03:55.325Z,19.80
2018-10-09T13:06:23.821Z,21.53
2018-10-09T13:08:52.273Z,21.53
2018-10-09T13:11:21.004Z,22.03
2018-10-09T13:13:49.399Z,20.90
2018-10-09T13:16:18.614Z,21.40
2018-10-09T13:18:47.155Z,18.90
2018-10-09T13:21:16.366Z,18.30
2018-10-09T13:23:44.730Z,20.20
2018-10-09T13:26:13.148Z,19.73
2018-10-09T13:28:41.608Z,19.23
2018-10-09T13:31:10.158Z,18.73
2018-10-09T13:33:38.694Z,20.63
2018-10-09T13:36:07.430Z,19.33
2018-10-09T13:38:36.221Z,19.57
2018-10-09T13:41:04.828Z,18.80
2018-10-09T13:43:34.313Z,19.67
2018-10-09T13:46:02.800Z,20.17
2018-10-09T13:48:31.290Z,20.20
2018-10-09T13:50:59.925Z,21.10
2018-10-09T13:53:28.256Z,19.10
2018-10-09T13:55:57.306Z,19.40
2018-10-09T13:58:26.505Z,18.50
2018-10-09T14:00:55.147Z,17.17
2018-10-09T14:03:23.887Z,20.43
2018-10-09T14:05:52.348Z,19.73
2018-10-09T14:08:21.067Z,18.13
2018-10-09T14:10:49.458Z,18.53
2018-10-09T14:13:17.928Z,19.17
2018-10-09T14:15:46.437Z,20.60
2018-10-09T14:18:15.762Z,19.47
2018-10-09T14:20:44.842Z,19.83
2018-10-09T14:23:13.542Z,20.07
2018-10-09T14:25:41.973Z,20.93
2018-10-09T14:28:10.516Z,20.70
2018-10-09T14:30:39.813Z,19.10
2018-10-09T14:33:08.797Z,19.83
2018-10-09T14:35:37.280Z,19.63
2018-10-09T14:38:05.789Z,19.43
2018-10-09T14:40:34.396Z,22.03
2018-10-09T14:43:02.800Z,20.47
2018-10-09T14:45:31.403Z,20.77
2018-10-09T14:47:59.885Z,20.97
2018-10-09T14:50:29.271Z,20.17
2018-10-09T14:52:57.782Z,20.10
2018-10-09T14:55:26.427Z,20.63
2018-10-09T14:57:56.003Z,19.97
2018-10-09T15:00:24.488Z,20.47
2018-10-09T15:02:53.526Z,19.13
2018-10-09T15:05:22.026Z,19.80
2018-10-09T15:07:50.567Z,17.60
2018-10-09T15:10:19.035Z,18.70
2018-10-09T15:12:47.565Z,16.43
2018-10-09T15:15:16.036Z,17.17
2018-10-09T15:17:44.564Z,17.17
2018-10-09T15:20:13.580Z,16.90
2018-10-09T15:22:42.796Z,17.93
2018-10-09T15:25:12.020Z,17.40
2018-10-09T15:27:40.629Z,17.97
2018-10-09T15:30:09.185Z,19.27
2018-10-09T15:32:38.203Z,18.63
2018-10-09T15:35:06.651Z,18.43
2018-10-09T15:37:35.872Z,18.40
2018-10-09T15:40:04.673Z,16.93
2018-10-09T15:42:33.914Z,17.63
2018-10-09T15:45:03.055Z,19.43
2018-10-09T15:47:31.554Z,18.17
2018-10-09T15:49:59.998Z,18.53
2018-10-09T15:52:28.460Z,19.27
2018-10-09T15:54:56.880Z,17.70
2018-10-09T15:57:25.408Z,16.97
2018-10-09T15:59:54.443Z,18.03
2018-10-09T16:02:23.679Z,17.30
2018-10-09T16:04:52.290Z,18.77
2018-10-09T16:07:20.872Z,18.63
2018-10-09T16:09:50.297Z,20.17
2018-10-09T16:12:18.764Z,19.40
2018-10-09T16:14:47.278Z,19.33
2018-10-09T16:17:15.778Z,19.23
2018-10-09T16:19:45.650Z,20.33
2018-10-09T16:22:14.241Z,20.40
2018-10-09T16:24:43.208Z,20.47
2018-10-09T16:27:11.738Z,22.07
2018-10-09T16:29:41.050Z,21.60
2018-10-09T16:32:09.512Z,21.20
2018-10-09T16:34:38.747Z,21.23
2018-10-09T16:37:07.343Z,22.97
2018-10-09T16:39:35.826Z,22.70
2018-10-09T16:42:04.993Z,26.93
2018-10-09T16:44:34.174Z,25.63
2018-10-09T16:47:05.237Z,25.87
2018-10-09T16:49:34.749Z,26.50
2018-10-09T16:52:04.003Z,27.80
2018-10-09T16:54:32.471Z,29.27
2018-10-09T16:57:00.938Z,29.63
2018-10-09T16:59:29.408Z,28.57
2018-10-09T17:01:58.165Z,30.73
2018-10-09T17:04:26.637Z,26.60
2018-10-09T17:06:56.238Z,26.83
2018-10-09T17:09:25.318Z,30.47
2018-10-09T17:11:54.492Z,31.57
2018-10-09T17:14:23.106Z,32.53
2018-10-09T17:16:51.606Z,34.37
2018-10-09T17:19:20.851Z,31.23
2018-10-09T17:21:49.287Z,31.20
2018-10-09T17:24:17.748Z,32.87
2018-10-09T17:26:46.853Z,34.93
2018-10-09T17:29:15.300Z,32.27
2018-10-09T17:31:43.744Z,35.17
2018-10-09T17:34:12.221Z,36.53
2018-10-09T17:36:41.137Z,37.37
2018-10-09T17:39:11.408Z,35.47
2018-10-09T17:41:40.223Z,36.27
2018-10-09T17:44:09.131Z,36.53
2018-10-09T17:46:38.906Z,36.93
2018-10-09T17:49:07.338Z,35.00
2018-10-09T17:51:36.143Z,37.83
2018-10-09T17:54:04.617Z,39.43
2018-10-09T17:56:33.143Z,41.07
2018-10-09T17:59:01.587Z,39.00
2018-10-09T18:01:30.070Z,39.60
2018-10-09T18:03:59.265Z,39.60
2018-10-09T18:06:27.951Z,40.97
2018-10-09T18:08:56.486Z,46.23
2018-10-09T18:11:24.874Z,42.33
2018-10-09T18:13:53.360Z,39.50
2018-10-09T18:16:21.920Z,44.17
2018-10-09T18:18:50.420Z,46.47
2018-10-09T18:21:18.953Z,42.80
2018-10-09T18:23:47.438Z,41.90
2018-10-09T18:26:16.031Z,41.60
2018-10-09T18:28:44.440Z,40.80
2018-10-09T18:31:13.056Z,40.73
2018-10-09T18:33:41.566Z,42.07
2018-10-09T18:36:10.191Z,42.23
2018-10-09T18:38:39.375Z,44.13
2018-10-09T18:41:07.947Z,42.73
2018-10-09T18:43:36.483Z,42.67
2018-10-09T18:46:04.985Z,44.27
2018-10-09T18:48:33.509Z,47.00
2018-10-09T18:51:02.098Z,46.30
2018-10-09T18:53:31.164Z,46.57
2018-10-09T18:55:59.936Z,45.73
2018-10-09T18:58:28.434Z,44.30
2018-10-09T19:00:56.977Z,46.67
2018-10-09T19:03:25.454Z,45.97
2018-10-09T19:05:54.070Z,48.23
2018-10-09T19:08:22.662Z,50.43
2018-10-09T19:10:51.263Z,49.60
2018-10-09T19:13:20.178Z,51.83
2018-10-09T19:15:49.388Z,47.97
2018-10-09T19:18:17.890Z,47.27
2018-10-09T19:20:46.440Z,46.77
2018-10-09T19:23:16.286Z,47.27
2018-10-09T19:25:44.884Z,46.17
2018-10-09T19:28:13.431Z,46.37
2018-10-09T19:30:42.824Z,49.83
2018-10-09T19:33:11.326Z,47.37
2018-10-09T19:35:39.939Z,46.03
2018-10-09T19:38:09.208Z,46.83
2018-10-09T19:40:37.723Z,46.10
2018-10-09T19:43:06.672Z,45.73
2018-10-09T19:45:35.173Z,46.27
2018-10-09T19:48:04.581Z,49.67
2018-10-09T19:50:33.091Z,47.83
2018-10-09T19:53:01.675Z,47.83
2018-10-09T19:55:30.961Z,50.77
2018-10-09T19:57:59.454Z,48.90
2018-10-09T20:00:28.140Z,50.60
2018-10-09T20:02:56.677Z,49.97
2018-10-09T20:05:25.909Z,47.53
2018-10-09T20:07:54.520Z,48.77
2018-10-09T20:10:22.877Z,47.97
2018-10-09T20:12:51.777Z,47.13
2018-10-09T20:15:21.160Z,47.67
2018-10-09T20:17:50.353Z,46.67
2018-10-09T20:20:19.532Z,47.83
2018-10-09T20:22:48.120Z,49.70
2018-10-09T20:25:16.828Z,51.07
2018-10-09T20:27:45.386Z,53.87
2018-10-09T20:30:13.973Z,55.90
2018-10-09T20:32:42.460Z,52.30
2018-10-09T20:35:11.566Z,55.37
2018-10-09T20:37:40.686Z,53.23
2018-10-09T20:40:09.654Z,54.43
2018-10-09T20:42:38.805Z,57.47
2018-10-09T20:45:07.632Z,55.23
2018-10-09T20:47:41.350Z,53.43
2018-10-09T20:50:09.939Z,53.60
2018-10-09T20:52:39.057Z,54.03
2018-10-09T20:55:07.751Z,56.20
2018-10-09T20:57:36.310Z,56.70
2018-10-09T21:00:05.031Z,53.77
2018-10-09T21:02:33.896Z,58.00
2018-10-09T21:05:02.580Z,59.77
2018-10-09T21:07:31.081Z,57.63
2018-10-09T21:09:59.705Z,54.57
2018-10-09T21:12:28.377Z,52.67
2018-10-09T21:14:56.888Z,53.97
2018-10-09T21:17:25.760Z,55.53
2018-10-09T21:19:54.160Z,56.70
2018-10-09T21:22:22.713Z,55.27
2018-10-09T21:24:51.181Z,54.80
2018-10-09T21:27:21.015Z,56.33
2018-10-09T21:29:49.745Z,59.40
2018-10-09T21:32:18.945Z,59.87
2018-10-09T21:34:48.449Z,59.50
2018-10-09T21:37:17.796Z,57.07
2018-10-09T21:39:46.336Z,54.00
2018-10-09T21:42:15.323Z,54.17
2018-10-09T21:44:44.402Z,55.10
2018-10-09T21:47:12.911Z,55.20
2018-10-09T21:49:41.479Z,56.57
2018-10-09T21:52:10.459Z,57.60
2018-10-09T21:54:38.916Z,59.40
2018-10-09T21:57:08.445Z,56.13
2018-10-09T21:59:37.533Z,61.50
2018-10-09T22:02:06.134Z,60.63
2018-10-09T22:04:34.655Z,63.40
2018-10-09T22:07:03.120Z,61.77
2018-10-09T22:09:31.585Z,64.60
2018-10-09T22:12:00.106Z,66.87
2018-10-09T22:14:29.339Z,66.07
2018-10-09T22:16:57.917Z,64.43
2018-10-09T22:19:26.514Z,67.77
2018-10-09T22:21:55.044Z,66.20
2018-10-09T22:24:23.987Z,65.00
2018-10-09T22:26:52.382Z,58.67
2018-10-09T22:29:20.851Z,57.80
2018-10-09T22:31:49.350Z,56.23
2018-10-09T22:34:18.891Z,58.50
2018-10-09T22:36:47.346Z,57.40
2018-10-09T22:39:16.426Z,56.63
2018-10-09T22:41:44.901Z,58.67
2018-10-09T22:44:13.381Z,56.70
2018-10-09T22:46:41.848Z,58.30
2018-10-09T22:49:10.340Z,58.53
2018-10-09T22:51:38.832Z,57.90
2018-10-09T22:54:07.405Z,57.23
2018-10-09T22:56:35.903Z,60.97
2018-10-09T22:59:04.519Z,59.40
2018-10-09T23:01:32.932Z,58.27
2018-10-09T23:04:01.557Z,58.47
2018-10-09T23:06:30.109Z,62.47
2018-10-09T23:08:58.599Z,59.17
2018-10-09T23:11:27.590Z,62.40
2018-10-09T23:13:56.010Z,62.00
2018-10-09T23:16:25.321Z,61.20
2018-10-09T23:18:54.005Z,60.17
2018-10-09T23:21:22.531Z,62.80
2018-10-09T23:23:51.095Z,60.43
2018-10-09T23:26:19.527Z,63.50
2018-10-09T23:28:48.707Z,60.53
2018-10-09T23:31:17.215Z,61.30
2018-10-09T23:33:45.639Z,58.37
2018-10-09T23:36:14.208Z,59.47
2018-10-09T23:38:43.719Z,57.73
2018-10-09T23:41:13.484Z,58.40
2018-10-09T23:43:43.152Z,58.23
2018-10-09T23:46:12.511Z,58.03
2018-10-09T23:48:41.822Z,58.20
2018-10-09T23:51:11.277Z,58.57
2018-10-09T23:53:39.686Z,59.23
2018-10-09T23:56:08.157Z,58.40
2018-10-09T23:58:36.606Z,58.57
